Fort Wayne International Airport
KFWA : now visible

Airfield :











YOU CAN JOIN US ON...

 
LOGIN :

Register | Disclaimer

   EN    FR    IT 

 









Legend :    VFR   Marginal VFR   IFR   Intensive IFR   Very Intensive IFR
Visi :
Ceiling :
>= 8 km
>= 3000ft
5 to 8 km
1000 to 3000 ft
1500m to 5 km
500 to 1000 ft
800 to 1500m
200 to 500 ft
< 800m
< 200 ft
Symbols :   Thunderstorms  Fog  Heavy snow  Heavy precipitations  Wind > 20 kt






- Airport Elevation : 814 ft
- IATA code : FWA


KFWA - Fort Wayne International

CURRENT METAR :
  • 152354Z 24005KT 9SM FEW009 BKN035 OVC070 01/M01 A2960 RMK AO2 SNE54 SLP032 P0007 60007 T00061011 10044 20006 51015 $

EXPIRED METARs :
  • 152341Z 23009KT 3SM -SN BR SCT009 BKN015 OVC030 01/M01 A2961 RMK AO2 P0007 T00061011 $
  • 152331Z 21008KT 5SM -SN BR BKN009 OVC027 01/M01 A2960 RMK AO2 P0006 T00061006
  • 152315Z 20015G21KT 1 1/4SM -SN BR FEW004 BKN017 OVC046 01/M01 A2960 RMK AO2 P0003 T00061011
  • 152254Z 15005KT 6SM -SN FEW023 BKN048 01/M02 A2958 RMK AO2 SNB42 SLP023 P0000 T00111017
  • 152154Z 00000KT 10SM FEW021 FEW060 SCT100 03/M02 A2956 RMK AO2 SNE03 SLP015 P0000 T00331017

TAF KFWA
Valid from the 16 at 00:00 until the 17 at 00:00 UTC


152357Z 1600/1624 VRB03KT P6SM VCSH SCT015 OVC030
TEMPO 1600/1601 3SM -SHSN BR BKN015
FM160800 VRB03KT 4SM BR VCSH BKN025
FM161400 25009KT P6SM OVC020
FM161800 25008KT P6SM OVC015
FM162100 25013KT 5SM -SN BR OVC015
PROB30 1621/1624 2SM -SN OVC007
KZAU FIR / North America



MET'MAP, your aeronautical weather chart ! - Copyright ORBIFLY December 2007 - Disclaimer

ORBIFLY MET'MAP TEAM :

Programming & Development : Alexandra Zaïnal
Concept & original design : Baudouin d'Aumeries
Assistance for programming : Marc-Olivier Méhu
Technical & hardware support : Manuel Goepfert

Contact : metmap@orbifly.com




SOURCES & CREDITS :

   NOAA       Earth
Advisory